Terminal Aerodrome Forecast
Issued by NWS Blacksburg, VA

Home | Current Version | Previous Version | Text Only | Print | Product List | Glossary On
Versions: 1 2 3 4 5 6 7 8 9 10 11 12 13
000
FTUS41 KRNK 231133
TAFROA
TAF
KROA 231133Z 2312/2412 12004KT P6SM BKN030 OVC080
     FM231500 24010KT P6SM BKN050
     FM240200 20010G18KT 4SM -SHRA OVC040
     FM240500 21012G21KT 2SM SHRA OVC040
     FM241000 28010G18KT P6SM BKN040=

USA.gov is the U.S. government's official web portal to all federal, state and local government web resources and services.